Time;durP1;ratioP1;P1;durP2;ratioP2;P2;SDS_P1;SDS_P2;PMS_P1;PMS_P2;Temp;Humidity;BMP_temperature;BMP_pressure;BME280_temperature;BME280_humidity;BME280_pressure;Samples;Min_cycle;Max_cycle;Signal;HPM_P1;HPM_P2
2023/12/06 00:01:16;;;;;;;79.63;36.07;;;-1.80;1.00;;;;;;5023172;28;20759;-70
2023/12/06 00:03:46;;;;;;;84.90;38.67;;;-1.60;1.00;;;;;;5018310;28;20234;-71
2023/12/06 00:06:16;;;;;;;82.63;36.77;;;-1.40;1.00;;;;;;5019271;28;20225;-72
2023/12/06 00:08:45;;;;;;;86.87;37.33;;;-1.80;1.00;;;;;;5025662;28;20283;-71
2023/12/06 00:11:14;;;;;;;84.93;36.73;;;-1.60;1.00;;;;;;5025769;28;20225;-71
2023/12/06 00:13:43;;;;;;;81.77;36.27;;;-1.50;1.00;;;;;;5015184;28;20236;-71
2023/12/06 00:16:12;;;;;;;84.03;37.10;;;-1.50;1.00;;;;;;5024304;28;20324;-71
2023/12/06 00:18:41;;;;;;;79.73;35.10;;;-1.50;1.00;;;;;;5015872;28;20238;-71
2023/12/06 00:21:11;;;;;;;78.57;34.67;;;-1.60;1.00;;;;;;5018030;28;20230;-70
2023/12/06 00:23:40;;;;;;;87.50;36.10;;;-1.50;1.00;;;;;;5020828;28;20245;-71
2023/12/06 00:26:08;;;;;;;82.10;36.80;;;-1.70;1.00;;;;;;5023187;28;20748;-72
2023/12/06 00:28:37;;;;;;;86.53;37.27;;;-1.40;1.00;;;;;;5021480;28;20269;-72
2023/12/06 00:31:05;;;;;;;79.90;35.43;;;-1.40;1.00;;;;;;5021795;28;20232;-71
2023/12/06 00:33:34;;;;;;;85.20;34.47;;;-1.30;1.00;;;;;;5016241;28;20219;-72
2023/12/06 00:36:02;;;;;;;80.67;36.00;;;-1.50;1.00;;;;;;5022074;28;20244;-71
2023/12/06 00:38:32;;;;;;;88.73;35.73;;;-1.60;1.00;;;;;;5022677;28;20221;-72
2023/12/06 00:41:01;;;;;;;90.07;36.83;;;-1.50;1.00;;;;;;5019945;28;20217;-71
2023/12/06 00:43:30;;;;;;;84.77;36.43;;;-1.70;1.00;;;;;;5022730;28;20331;-71
2023/12/06 00:45:58;;;;;;;86.27;35.93;;;-1.50;1.00;;;;;;5019468;28;20287;-70
2023/12/06 00:48:27;;;;;;;85.63;35.77;;;-1.70;1.00;;;;;;5021089;28;20280;-70
2023/12/06 00:50:55;;;;;;;87.97;36.43;;;-1.60;1.00;;;;;;5017060;28;20243;-71
2023/12/06 00:53:24;;;;;;;90.97;37.27;;;-1.50;1.00;;;;;;5021881;28;20233;-72
2023/12/06 00:55:53;;;;;;;81.43;34.53;;;-1.40;1.00;;;;;;5019780;28;20309;-72
2023/12/06 00:58:22;;;;;;;96.10;39.47;;;-1.50;1.00;;;;;;5019025;28;20299;-72
2023/12/06 01:00:50;;;;;;;88.97;36.83;;;-1.30;1.00;;;;;;5019286;28;20221;-71
2023/12/06 01:03:19;;;;;;;91.97;37.93;;;-1.30;1.00;;;;;;5018571;28;20233;-71
2023/12/06 01:05:48;;;;;;;82.47;36.10;;;-1.20;1.00;;;;;;5016136;28;20229;-71
2023/12/06 01:08:16;;;;;;;83.50;36.23;;;-1.30;1.00;;;;;;5020125;28;20218;-72
2023/12/06 01:10:44;;;;;;;88.53;38.70;;;-1.20;1.00;;;;;;5017301;28;20225;-70
2023/12/06 01:13:14;;;;;;;81.30;35.07;;;-1.10;1.00;;;;;;5019247;28;20220;-70
2023/12/06 01:15:43;;;;;;;84.67;36.63;;;-1.20;1.00;;;;;;5037759;28;20366;-71
2023/12/06 01:18:11;;;;;;;84.73;37.20;;;-1.10;1.00;;;;;;5023247;28;20229;-72
2023/12/06 01:20:40;;;;;;;82.30;34.83;;;-1.00;1.00;;;;;;5020991;28;20232;-72
2023/12/06 01:23:09;;;;;;;91.43;36.87;;;-1.10;1.00;;;;;;5019756;28;20243;-69
2023/12/06 01:25:38;;;;;;;90.10;37.17;;;-1.00;1.00;;;;;;5020257;28;20225;-71
2023/12/06 01:28:07;;;;;;;87.60;36.37;;;-1.10;1.00;;;;;;5018227;28;20231;-71
2023/12/06 01:30:37;;;;;;;92.50;38.33;;;-1.10;1.00;;;;;;5019731;28;20241;-72
2023/12/06 01:33:05;;;;;;;92.03;37.73;;;-1.00;1.00;;;;;;5023696;28;20693;-71
2023/12/06 01:35:34;;;;;;;87.10;37.07;;;-0.90;1.00;;;;;;5019693;28;20221;-71
2023/12/06 01:38:02;;;;;;;85.53;36.90;;;-0.90;1.00;;;;;;5018807;28;20526;-73
2023/12/06 01:40:31;;;;;;;86.30;36.60;;;-0.90;1.00;;;;;;5017945;28;20221;-73
2023/12/06 01:42:59;;;;;;;92.17;38.00;;;-1.20;1.00;;;;;;5035302;28;20226;-72
2023/12/06 01:45:28;;;;;;;89.53;38.07;;;-1.10;1.00;;;;;;5018877;28;20243;-71
2023/12/06 01:47:58;;;;;;;82.13;36.87;;;-1.10;1.00;;;;;;5021937;28;20217;-72
2023/12/06 01:50:27;;;;;;;85.03;36.10;;;-0.90;1.00;;;;;;5018881;28;20372;-71
2023/12/06 01:52:59;;;;;;;88.57;37.70;;;-0.90;1.00;;;;;;5018968;28;20213;-72
2023/12/06 01:55:28;;;;;;;91.13;37.23;;;-1.10;1.00;;;;;;5026685;28;20768;-72
2023/12/06 01:57:57;;;;;;;90.20;37.40;;;-0.90;1.00;;;;;;5022476;28;20404;-72
2023/12/06 02:00:26;;;;;;;85.10;37.07;;;-0.80;1.00;;;;;;5021858;28;20221;-73
2023/12/06 02:02:56;;;;;;;87.63;37.80;;;-0.70;1.00;;;;;;5021225;28;20226;-72
2023/12/06 02:05:25;;;;;;;90.17;38.17;;;-0.70;1.00;;;;;;5019182;28;20221;-72
2023/12/06 02:07:55;;;;;;;84.17;35.67;;;-1.00;1.00;;;;;;5025050;28;20221;-72
2023/12/06 02:10:23;;;;;;;90.20;37.03;;;-1.00;1.00;;;;;;5056781;28;20225;-72
2023/12/06 02:12:52;;;;;;;81.60;35.10;;;-0.90;1.00;;;;;;5023330;28;20221;-74
2023/12/06 02:15:21;;;;;;;85.73;36.13;;;-0.90;1.00;;;;;;5019440;28;20218;-71
2023/12/06 02:17:50;;;;;;;81.97;35.70;;;-0.90;1.00;;;;;;5024791;28;20677;-71
2023/12/06 02:20:20;;;;;;;79.27;35.80;;;-1.00;1.00;;;;;;5025983;28;20229;-72
2023/12/06 02:22:50;;;;;;;83.83;35.87;;;-1.00;1.00;;;;;;5022613;28;20221;-71
2023/12/06 02:25:20;;;;;;;83.40;37.03;;;-0.80;1.00;;;;;;5022396;28;20244;-73
2023/12/06 02:27:49;;;;;;;74.20;35.17;;;-0.80;1.00;;;;;;5023816;28;20233;-71
2023/12/06 02:30:17;;;;;;;80.87;35.10;;;-1.00;1.00;;;;;;5025387;28;20270;-72
2023/12/06 02:32:46;;;;;;;86.07;36.53;;;-1.10;1.00;;;;;;5026669;28;20221;-72
2023/12/06 02:35:19;;;;;;;81.50;34.23;;;-1.20;1.00;;;;;;5036784;28;20645;-69
2023/12/06 02:37:50;;;;;;;77.80;34.67;;;-1.20;1.00;;;;;;5037199;28;20313;-71
2023/12/06 02:40:25;;;;;;;84.30;36.07;;;-1.20;1.00;;;;;;5022211;28;20268;-71
2023/12/06 02:42:53;;;;;;;80.03;34.73;;;-1.40;1.00;;;;;;5023752;28;20592;-69
2023/12/06 02:45:22;;;;;;;82.63;34.93;;;-1.40;1.00;;;;;;5029100;28;20268;-71
2023/12/06 02:47:51;;;;;;;75.50;33.20;;;-1.40;1.00;;;;;;5044356;28;20213;-70
2023/12/06 02:50:19;;;;;;;75.07;32.97;;;-1.50;1.00;;;;;;5029247;28;20224;-70
2023/12/06 02:52:48;;;;;;;86.23;35.40;;;-1.30;1.00;;;;;;5022687;28;20334;-70
2023/12/06 02:55:16;;;;;;;78.87;35.07;;;-1.30;1.00;;;;;;5026511;28;20232;-70
2023/12/06 02:57:46;;;;;;;83.63;34.90;;;-1.20;1.00;;;;;;5027596;28;20252;-69
2023/12/06 03:00:15;;;;;;;83.80;35.23;;;-1.20;1.00;;;;;;5028037;28;20307;-70
2023/12/06 03:02:43;;;;;;;88.47;35.57;;;-1.10;1.00;;;;;;5024708;28;20343;-72
2023/12/06 03:05:12;;;;;;;81.83;35.40;;;-1.10;1.00;;;;;;5057605;28;20238;-70
2023/12/06 03:07:41;;;;;;;78.73;34.87;;;-1.20;1.00;;;;;;5023907;28;20212;-72
2023/12/06 03:10:11;;;;;;;76.70;35.17;;;-1.30;1.00;;;;;;5024890;28;20284;-72
2023/12/06 03:12:39;;;;;;;72.20;33.03;;;-1.20;1.00;;;;;;5024386;28;20309;-70
2023/12/06 03:15:10;;;;;;;76.30;32.87;;;-1.30;1.00;;;;;;5013723;28;20233;-71
2023/12/06 03:17:39;;;;;;;77.03;34.23;;;-1.10;1.00;;;;;;5024978;28;20222;-71
2023/12/06 03:20:10;;;;;;;77.53;33.80;;;-1.10;1.00;;;;;;5035924;28;20289;-69
2023/12/06 03:22:38;;;;;;;70.77;33.30;;;-0.90;1.00;;;;;;5023119;28;20221;-70
2023/12/06 03:25:08;;;;;;;70.13;32.63;;;-1.00;1.00;;;;;;5022582;28;20232;-69
2023/12/06 03:27:36;;;;;;;68.93;32.90;;;-0.90;1.00;;;;;;5027003;28;20221;-69
2023/12/06 03:30:06;;;;;;;71.47;32.83;;;-1.10;1.00;;;;;;5057434;28;20276;-72
2023/12/06 03:32:39;;;;;;;71.70;32.27;;;-1.00;1.00;;;;;;5023843;28;20248;-71
2023/12/06 03:35:09;;;;;;;71.80;33.43;;;-1.10;1.00;;;;;;5021901;28;20240;-71
2023/12/06 03:37:37;;;;;;;74.70;33.00;;;-0.90;1.00;;;;;;5021923;28;20237;-71
2023/12/06 03:40:07;;;;;;;74.80;33.10;;;-1.00;1.00;;;;;;5024203;28;20415;-70
2023/12/06 03:42:35;;;;;;;75.57;33.30;;;-1.20;1.00;;;;;;5024616;28;20617;-71
2023/12/06 03:45:04;;;;;;;70.27;32.87;;;-1.30;1.00;;;;;;5024104;28;20257;-71
2023/12/06 03:47:33;;;;;;;63.60;31.47;;;-1.50;1.00;;;;;;5019412;28;20249;-70
2023/12/06 03:50:04;;;;;;;69.77;30.77;;;-1.60;1.00;;;;;;5024807;28;20221;-70
2023/12/06 03:52:33;;;;;;;74.33;32.83;;;-1.60;1.00;;;;;;5020993;28;20275;-69
2023/12/06 03:55:02;;;;;;;68.40;32.13;;;-1.40;1.00;;;;;;5023123;28;20221;-70
2023/12/06 03:57:30;;;;;;;65.37;31.37;;;-1.50;1.00;;;;;;5048346;28;20232;-70
2023/12/06 03:59:59;;;;;;;76.27;31.77;;;-1.50;1.00;;;;;;5037507;28;20273;-69
2023/12/06 04:02:27;;;;;;;69.40;33.10;;;-1.40;1.00;;;;;;5022337;28;20221;-69
2023/12/06 04:04:57;;;;;;;70.77;32.50;;;-1.20;1.00;;;;;;5021761;28;20236;-70
2023/12/06 04:07:27;;;;;;;75.73;33.13;;;-1.20;1.00;;;;;;5048796;28;20217;-72
2023/12/06 04:09:55;;;;;;;71.17;31.60;;;-1.10;1.00;;;;;;5020080;28;20225;-71
2023/12/06 04:12:24;;;;;;;77.47;32.37;;;-1.10;1.00;;;;;;5023332;28;20225;-71
2023/12/06 04:14:53;;;;;;;64.23;30.47;;;-1.10;1.00;;;;;;5025040;28;20233;-72
2023/12/06 04:17:22;;;;;;;65.63;29.00;;;-1.30;1.00;;;;;;5056134;28;20229;-72
2023/12/06 04:19:51;;;;;;;67.50;30.40;;;-1.40;1.00;;;;;;5019617;28;20257;-72
2023/12/06 04:22:20;;;;;;;62.33;28.23;;;-1.20;1.00;;;;;;5023610;28;20226;-72
2023/12/06 04:24:50;;;;;;;62.97;30.33;;;-1.30;1.00;;;;;;5016151;28;20232;-72
2023/12/06 04:27:18;;;;;;;64.03;29.90;;;-1.30;1.00;;;;;;5020238;28;20271;-71
2023/12/06 04:29:48;;;;;;;61.50;29.03;;;-1.30;1.00;;;;;;5014636;28;20280;-71
2023/12/06 04:32:17;;;;;;;62.20;28.90;;;-1.20;1.00;;;;;;5022849;28;20774;-72
2023/12/06 04:34:53;;;;;;;60.00;28.30;;;-1.30;1.00;;;;;;5022702;28;20235;-71
2023/12/06 04:37:21;;;;;;;67.57;29.87;;;-1.30;1.00;;;;;;5021824;28;20233;-71
2023/12/06 04:39:52;;;;;;;61.90;28.77;;;-1.00;1.00;;;;;;5020248;28;20732;-71
2023/12/06 04:42:21;;;;;;;56.00;27.63;;;-1.20;1.00;;;;;;5050763;28;20221;-71
2023/12/06 04:44:49;;;;;;;57.93;28.90;;;-1.10;1.00;;;;;;5020827;28;20225;-71
2023/12/06 04:47:18;;;;;;;63.70;29.63;;;-1.10;1.00;;;;;;5018723;28;20225;-70
2023/12/06 04:49:47;;;;;;;64.63;29.47;;;-1.00;1.00;;;;;;5034420;28;20237;-70
2023/12/06 04:52:15;;;;;;;55.60;26.53;;;-1.10;1.00;;;;;;5013629;28;20276;-69
2023/12/06 04:54:44;;;;;;;66.20;28.43;;;-1.30;1.00;;;;;;5021390;28;20996;-71
2023/12/06 04:57:14;;;;;;;63.60;28.33;;;-1.30;1.00;;;;;;5021034;28;20225;-71
2023/12/06 04:59:42;;;;;;;60.23;29.70;;;-1.50;1.00;;;;;;5021755;28;20638;-70
2023/12/06 05:02:11;;;;;;;61.20;28.53;;;-1.30;1.00;;;;;;5022636;28;20233;-70
2023/12/06 05:04:40;;;;;;;56.07;27.57;;;-1.30;1.00;;;;;;5023139;28;20225;-69
2023/12/06 05:07:08;;;;;;;61.27;28.10;;;-1.20;1.00;;;;;;5025160;28;20235;-70
2023/12/06 05:09:38;;;;;;;56.70;27.63;;;-1.20;1.00;;;;;;5022046;28;20221;-69
2023/12/06 05:12:07;;;;;;;58.53;27.10;;;-1.20;1.00;;;;;;5023789;28;20945;-70
2023/12/06 05:14:37;;;;;;;59.77;28.63;;;-1.10;1.00;;;;;;5026507;28;20226;-70
2023/12/06 05:17:06;;;;;;;56.87;28.17;;;-1.30;1.00;;;;;;5025019;28;20225;-71
2023/12/06 05:19:34;;;;;;;56.63;27.40;;;-1.20;1.00;;;;;;5029282;28;20236;-72
2023/12/06 05:22:03;;;;;;;56.53;27.37;;;-1.00;1.00;;;;;;5021029;28;20218;-70
2023/12/06 05:24:32;;;;;;;60.13;27.47;;;-1.20;1.00;;;;;;5032526;28;20304;-71
2023/12/06 05:27:00;;;;;;;61.33;28.10;;;-1.30;1.00;;;;;;5016193;28;20233;-70
2023/12/06 05:29:29;;;;;;;56.43;25.63;;;-1.20;1.00;;;;;;5020538;28;20224;-71
2023/12/06 05:31:59;;;;;;;59.60;27.23;;;-1.20;1.00;;;;;;5020759;28;20749;-69
2023/12/06 05:34:27;;;;;;;56.17;25.87;;;-1.20;1.00;;;;;;5020424;28;20240;-70
2023/12/06 05:36:56;;;;;;;59.10;27.93;;;-1.20;1.00;;;;;;5016539;28;20228;-69
2023/12/06 05:39:25;;;;;;;56.93;29.20;;;-1.20;1.00;;;;;;5022252;28;20291;-71
2023/12/06 05:41:54;;;;;;;58.47;26.80;;;-1.20;1.00;;;;;;5013050;28;20316;-70
2023/12/06 05:44:22;;;;;;;60.80;28.53;;;-1.30;1.00;;;;;;5014566;28;20239;-71
2023/12/06 05:46:52;;;;;;;56.50;28.33;;;-1.40;1.00;;;;;;5024472;28;20726;-70
2023/12/06 05:49:22;;;;;;;58.07;29.20;;;-1.40;1.00;;;;;;5019690;28;20234;-70
2023/12/06 05:51:50;;;;;;;59.13;28.47;;;-1.40;1.00;;;;;;5021304;28;20232;-69
2023/12/06 05:54:19;;;;;;;63.40;28.43;;;-1.40;1.00;;;;;;5016757;28;20233;-69
2023/12/06 05:56:47;;;;;;;63.57;29.83;;;-1.20;1.00;;;;;;5010968;28;20295;-69
2023/12/06 05:59:16;;;;;;;58.60;28.00;;;-1.10;1.00;;;;;;5018265;28;20316;-70
2023/12/06 06:01:44;;;;;;;57.10;27.27;;;-0.90;1.00;;;;;;5033298;28;20229;-70
2023/12/06 06:04:13;;;;;;;55.40;27.80;;;-1.00;1.00;;;;;;5014209;28;20379;-69
2023/12/06 06:06:43;;;;;;;58.57;28.17;;;-0.90;1.00;;;;;;5016255;28;20233;-71
2023/12/06 06:09:11;;;;;;;55.93;26.67;;;-1.00;1.00;;;;;;5019467;28;20279;-70
2023/12/06 06:11:39;;;;;;;59.30;27.37;;;-1.10;1.00;;;;;;5018364;28;20222;-69
2023/12/06 06:14:08;;;;;;;62.70;28.63;;;-1.10;1.00;;;;;;5018810;28;20226;-70
2023/12/06 06:16:37;;;;;;;56.77;28.20;;;-1.00;1.00;;;;;;5014800;28;20303;-69
2023/12/06 06:19:05;;;;;;;59.93;28.60;;;-0.90;1.00;;;;;;5015073;28;20222;-71
2023/12/06 06:21:34;;;;;;;59.57;27.30;;;-1.00;1.00;;;;;;5023187;28;20257;-68
2023/12/06 06:24:05;;;;;;;58.67;28.17;;;-1.00;1.00;;;;;;5021925;28;20280;-69
2023/12/06 06:26:33;;;;;;;62.10;28.83;;;-1.00;1.00;;;;;;5018938;28;20221;-69
2023/12/06 06:29:02;;;;;;;58.07;28.07;;;-0.80;1.00;;;;;;5018376;28;20229;-66
2023/12/06 06:31:30;;;;;;;59.00;28.40;;;-0.80;1.00;;;;;;5017374;28;20233;-68
2023/12/06 06:34:02;;;;;;;57.40;27.53;;;-0.80;1.00;;;;;;5022374;28;20229;-67
2023/12/06 06:36:31;;;;;;;57.70;28.93;;;-0.90;1.00;;;;;;5021909;28;20689;-69
2023/12/06 06:39:00;;;;;;;52.27;28.07;;;-0.70;1.00;;;;;;5017924;28;20229;-68
2023/12/06 06:41:30;;;;;;;56.03;28.43;;;-0.80;1.00;;;;;;5015381;28;20231;-68
2023/12/06 06:43:59;;;;;;;52.17;26.57;;;-0.90;1.00;;;;;;5014879;28;20236;-68
2023/12/06 06:46:28;;;;;;;58.70;28.50;;;-0.90;1.00;;;;;;5021686;28;20770;-70
2023/12/06 06:48:57;;;;;;;55.97;28.50;;;-0.90;1.00;;;;;;5021658;28;20225;-69
2023/12/06 06:51:32;;;;;;;62.80;28.63;;;-0.80;1.00;;;;;;5021226;28;20724;-69
2023/12/06 06:54:01;;;;;;;59.43;28.10;;;-0.80;1.00;;;;;;5023073;28;20278;-68
2023/12/06 06:56:31;;;;;;;53.53;27.90;;;-0.90;1.00;;;;;;5023091;28;20214;-68
2023/12/06 06:59:00;;;;;;;53.37;26.47;;;-0.80;1.00;;;;;;5020317;28;20724;-68
2023/12/06 07:01:28;;;;;;;54.90;26.83;;;-0.70;1.00;;;;;;5021688;28;21038;-69
2023/12/06 07:03:57;;;;;;;54.17;28.50;;;-0.70;1.00;;;;;;5023535;28;20861;-68
2023/12/06 07:06:26;;;;;;;58.37;28.03;;;-0.70;1.00;;;;;;5025244;28;20304;-69
2023/12/06 07:08:55;;;;;;;56.63;28.53;;;-0.60;1.00;;;;;;5023623;28;20225;-72
2023/12/06 07:11:24;;;;;;;58.53;27.07;;;-0.50;1.00;;;;;;5022861;28;20312;-73
2023/12/06 07:13:53;;;;;;;56.37;28.07;;;-0.70;1.00;;;;;;5026224;28;20704;-72
2023/12/06 07:16:22;;;;;;;55.00;27.60;;;-0.70;1.00;;;;;;5024164;28;20213;-71
2023/12/06 07:18:51;;;;;;;55.33;28.03;;;-0.70;1.00;;;;;;5018359;28;20376;-71
2023/12/06 07:21:20;;;;;;;56.93;28.50;;;-0.60;1.00;;;;;;5018749;28;20317;-71
2023/12/06 07:23:48;;;;;;;56.77;27.47;;;-0.40;1.00;;;;;;5021851;28;20801;-71
2023/12/06 07:26:18;;;;;;;56.17;28.03;;;-0.40;1.00;;;;;;5021707;28;20306;-72
2023/12/06 07:28:47;;;;;;;56.30;27.83;;;-0.50;1.00;;;;;;5022531;28;20231;-72
2023/12/06 07:31:18;;;;;;;55.67;27.23;;;-0.20;1.00;;;;;;5036723;28;20757;-72
2023/12/06 07:33:47;;;;;;;47.53;25.50;;;-0.30;1.00;;;;;;5023945;28;20325;-71
2023/12/06 07:36:16;;;;;;;59.87;29.07;;;-0.40;1.00;;;;;;5018663;28;20220;-72
2023/12/06 07:38:45;;;;;;;51.53;26.27;;;-0.50;1.00;;;;;;5023675;28;20217;-71
2023/12/06 07:41:14;;;;;;;58.17;28.70;;;-0.40;1.00;;;;;;5022490;28;20218;-71
2023/12/06 07:43:42;;;;;;;59.57;27.60;;;-0.50;1.00;;;;;;5022287;28;20234;-71
2023/12/06 07:46:10;;;;;;;56.33;29.20;;;-0.30;1.00;;;;;;5018360;28;20224;-69
2023/12/06 07:48:40;;;;;;;50.30;27.73;;;-0.20;1.00;;;;;;5022261;28;20222;-71
2023/12/06 07:51:09;;;;;;;52.90;28.53;;;0.00;1.00;;;;;;5020945;28;20218;-72
2023/12/06 07:53:38;;;;;;;56.33;28.77;;;-0.20;1.00;;;;;;5021953;28;20228;-71
2023/12/06 07:56:08;;;;;;;52.20;27.77;;;-0.40;1.00;;;;;;5040951;28;20225;-71
2023/12/06 07:58:37;;;;;;;51.20;27.50;;;-0.60;1.00;;;;;;5023792;28;20268;-71
2023/12/06 08:01:06;;;;;;;55.63;28.80;;;-0.40;1.00;;;;;;5018105;28;20835;-71
2023/12/06 08:03:35;;;;;;;55.07;28.00;;;-0.60;1.00;;;;;;5022047;28;20249;-72
2023/12/06 08:06:12;;;;;;;56.87;28.17;;;-0.60;1.00;;;;;;5024460;28;20267;-69
2023/12/06 08:08:42;;;;;;;52.37;26.63;;;-0.50;1.00;;;;;;5024893;28;20217;-71
2023/12/06 08:11:11;;;;;;;58.03;29.30;;;-0.50;1.00;;;;;;5023261;28;20919;-72
2023/12/06 08:13:39;;;;;;;55.53;28.23;;;-0.50;1.00;;;;;;5022867;28;20217;-73
2023/12/06 08:16:08;;;;;;;60.10;29.37;;;-0.50;1.00;;;;;;5023766;28;20244;-72
2023/12/06 08:18:37;;;;;;;50.40;28.43;;;-0.40;1.00;;;;;;5019684;28;20254;-70
2023/12/06 08:21:08;;;;;;;54.97;28.77;;;-0.40;1.00;;;;;;5018327;28;20578;-71
2023/12/06 08:23:37;;;;;;;57.33;30.27;;;-0.40;1.00;;;;;;5021347;28;20221;-72
2023/12/06 08:26:06;;;;;;;58.73;29.30;;;-0.30;1.00;;;;;;5018051;28;20226;-70
2023/12/06 08:28:36;;;;;;;56.37;28.83;;;-0.50;1.00;;;;;;5033087;28;20230;-71
2023/12/06 08:31:05;;;;;;;61.17;30.30;;;-0.40;1.00;;;;;;5013388;28;20251;-71
2023/12/06 08:33:33;;;;;;;59.30;29.73;;;-0.60;1.00;;;;;;5022337;28;20225;-71
2023/12/06 08:36:02;;;;;;;62.47;29.53;;;-0.60;1.00;;;;;;5019882;28;20237;-71
2023/12/06 08:38:32;;;;;;;59.40;30.53;;;-0.50;1.00;;;;;;5023066;28;20232;-72
2023/12/06 08:41:00;;;;;;;58.97;30.47;;;-0.80;1.00;;;;;;5016347;28;20316;-71
2023/12/06 08:43:29;;;;;;;60.00;29.33;;;-0.50;1.00;;;;;;5023605;28;20226;-70
2023/12/06 08:45:57;;;;;;;59.70;30.60;;;-0.70;1.00;;;;;;5017300;28;20251;-70
2023/12/06 08:48:26;;;;;;;61.87;30.97;;;-0.70;1.00;;;;;;5019927;28;20222;-72
2023/12/06 08:50:55;;;;;;;61.87;30.63;;;-0.90;1.00;;;;;;5017529;28;20698;-71
2023/12/06 08:53:23;;;;;;;64.70;30.20;;;-0.90;1.00;;;;;;5021845;28;20210;-74
2023/12/06 08:55:54;;;;;;;63.57;31.27;;;-0.90;1.00;;;;;;5018490;28;20268;-72
2023/12/06 08:58:25;;;;;;;57.73;29.57;;;-0.70;1.00;;;;;;5020051;28;20221;-72
2023/12/06 09:00:53;;;;;;;65.57;32.17;;;-0.70;1.00;;;;;;5036501;28;20574;-71
2023/12/06 09:03:22;;;;;;;63.07;31.93;;;-0.70;1.00;;;;;;5019755;28;20213;-72
2023/12/06 09:05:51;;;;;;;66.97;32.47;;;-0.80;1.00;;;;;;5003982;28;20716;-72
2023/12/06 09:08:21;;;;;;;65.07;31.63;;;-0.70;1.00;;;;;;4998008;28;20230;-72
2023/12/06 09:10:49;;;;;;;66.37;31.43;;;-0.90;1.00;;;;;;5008187;28;20312;-69
2023/12/06 09:13:20;;;;;;;65.03;31.93;;;-0.80;1.00;;;;;;5017550;28;20286;-69
2023/12/06 09:15:49;;;;;;;63.97;31.40;;;-0.70;1.00;;;;;;5011930;28;20253;-70
2023/12/06 09:18:17;;;;;;;63.20;30.67;;;-0.60;1.00;;;;;;5017245;28;20252;-69
2023/12/06 09:20:46;;;;;;;61.30;29.97;;;-0.90;1.00;;;;;;5011516;28;20218;-69
2023/12/06 09:23:15;;;;;;;63.37;30.97;;;-0.90;1.00;;;;;;5016777;28;21304;-69
2023/12/06 09:25:43;;;;;;;66.10;31.30;;;-0.80;1.00;;;;;;5015300;28;20317;-70
2023/12/06 09:28:12;;;;;;;66.63;30.83;;;-0.70;1.00;;;;;;5013376;28;20276;-70
2023/12/06 09:30:42;;;;;;;62.27;30.63;;;-0.80;1.00;;;;;;5012783;28;20221;-71
2023/12/06 09:33:11;;;;;;;64.83;31.07;;;-0.80;1.00;;;;;;5020054;28;20307;-70
2023/12/06 09:35:40;;;;;;;64.33;31.93;;;-0.90;1.00;;;;;;5012510;28;20291;-70
2023/12/06 09:38:08;;;;;;;61.03;29.40;;;-0.70;1.00;;;;;;5017025;28;20214;-70
2023/12/06 09:40:37;;;;;;;61.77;30.60;;;-0.70;1.00;;;;;;5020778;28;20348;-70
2023/12/06 09:43:07;;;;;;;68.37;30.27;;;-0.90;1.00;;;;;;5019749;28;20232;-69
2023/12/06 09:45:37;;;;;;;62.70;30.40;;;-0.80;1.00;;;;;;5047912;28;20472;-69
2023/12/06 09:48:07;;;;;;;64.57;29.80;;;-0.90;1.00;;;;;;5017186;28;20217;-70
2023/12/06 09:50:38;;;;;;;69.50;31.30;;;-0.80;1.00;;;;;;5018283;28;20231;-70
2023/12/06 09:53:06;;;;;;;63.30;29.60;;;-0.60;1.00;;;;;;5017932;28;20313;-69
2023/12/06 09:55:37;;;;;;;68.57;31.17;;;-0.60;1.00;;;;;;5014200;28;20764;-70
2023/12/06 09:58:06;;;;;;;63.13;29.63;;;-0.70;1.00;;;;;;5011986;28;20222;-70
2023/12/06 10:00:36;;;;;;;61.97;29.33;;;-0.80;1.00;;;;;;5015287;28;20348;-70
2023/12/06 10:03:06;;;;;;;64.30;29.80;;;-0.80;1.00;;;;;;5019633;28;20229;-70
2023/12/06 10:05:37;;;;;;;63.70;30.30;;;-0.80;1.00;;;;;;5016780;28;20352;-70
2023/12/06 10:08:06;;;;;;;65.20;30.10;;;-0.80;1.00;;;;;;5021010;28;20789;-68
2023/12/06 10:10:35;;;;;;;62.60;29.93;;;-0.70;1.00;;;;;;5017223;28;20716;-69
2023/12/06 10:13:03;;;;;;;65.87;29.80;;;-0.70;1.00;;;;;;5017492;28;20225;-68
2023/12/06 10:15:37;;;;;;;62.00;30.27;;;-0.80;1.00;;;;;;5015487;28;20684;-67
2023/12/06 10:18:12;;;;;;;58.00;28.80;;;-0.80;1.00;;;;;;5013805;28;20267;-69
2023/12/06 10:20:43;;;;;;;61.10;28.43;;;-0.50;1.00;;;;;;5015722;28;20252;-69
2023/12/06 10:23:13;;;;;;;56.83;27.97;;;-0.70;1.00;;;;;;5017969;28;20232;-69
2023/12/06 10:25:42;;;;;;;56.73;27.50;;;-0.70;1.00;;;;;;5018131;28;20232;-69
2023/12/06 10:28:12;;;;;;;56.43;27.67;;;-0.90;1.00;;;;;;5019365;28;21220;-68
2023/12/06 10:30:40;;;;;;;56.10;26.77;;;-0.60;1.00;;;;;;5020391;28;20221;-70
2023/12/06 10:33:12;;;;;;;62.13;28.30;;;-0.60;1.00;;;;;;5018755;28;20779;-72
2023/12/06 10:35:43;;;;;;;58.80;27.00;;;-0.50;1.00;;;;;;5021561;28;20244;-69
2023/12/06 10:38:13;;;;;;;58.87;28.20;;;-0.60;1.00;;;;;;5024343;28;20233;-69
2023/12/06 10:40:43;;;;;;;59.33;28.07;;;-0.60;1.00;;;;;;5018281;28;20226;-71
2023/12/06 10:43:12;;;;;;;56.70;27.20;;;-0.70;1.00;;;;;;5021468;28;20963;-72
2023/12/06 10:45:41;;;;;;;56.03;27.27;;;-0.80;1.00;;;;;;5018615;28;20241;-71
2023/12/06 10:48:10;;;;;;;55.03;26.83;;;-0.60;1.00;;;;;;5023341;28;20218;-72
2023/12/06 10:50:40;;;;;;;61.13;27.50;;;-0.60;1.00;;;;;;5022867;28;20236;-72
2023/12/06 10:53:13;;;;;;;60.27;27.90;;;-0.70;1.00;;;;;;5024565;28;20272;-72
2023/12/06 10:55:43;;;;;;;56.50;28.63;;;-0.70;1.00;;;;;;5016657;28;20295;-71
2023/12/06 10:58:14;;;;;;;63.83;28.87;;;-0.40;1.00;;;;;;5036497;28;20766;-69
2023/12/06 11:00:44;;;;;;;60.27;28.07;;;-0.40;1.00;;;;;;5022693;28;20284;-70
2023/12/06 11:03:13;;;;;;;56.20;27.57;;;-0.80;1.00;;;;;;5010694;28;20735;-72
2023/12/06 11:05:46;;;;;;;62.43;29.53;;;-0.80;1.00;;;;;;5015185;28;20307;-72
2023/12/06 11:08:58;;;;;;;64.30;30.10;;;-1.00;1.00;;;;;;5043884;28;20225;-73
2023/12/06 11:11:43;;;;;;;64.83;29.77;;;-0.90;1.00;;;;;;5016952;28;20230;-73
2023/12/06 11:14:34;;;;;;;67.10;30.87;;;-0.70;1.00;;;;;;5034226;28;20226;-72
2023/12/06 11:17:13;;;;;;;64.53;29.40;;;-0.90;1.00;;;;;;5023643;28;20287;-72
2023/12/06 11:19:42;;;;;;;61.70;29.97;;;-0.80;1.00;;;;;;5038574;28;20228;-71
2023/12/06 11:22:11;;;;;;;58.43;27.77;;;-0.90;1.00;;;;;;5022023;28;20305;-71
2023/12/06 11:24:42;;;;;;;62.03;28.60;;;-0.80;1.00;;;;;;5024496;28;20237;-73
2023/12/06 11:27:11;;;;;;;58.50;28.07;;;-0.80;1.00;;;;;;5055099;28;20218;-72
2023/12/06 11:29:41;;;;;;;61.73;29.70;;;-0.70;1.00;;;;;;5016612;28;20721;-72
2023/12/06 11:32:12;;;;;;;61.93;28.47;;;-0.70;1.00;;;;;;5024768;28;20214;-72
2023/12/06 11:34:41;;;;;;;56.40;27.73;;;-0.60;1.00;;;;;;5026359;28;20244;-72
2023/12/06 11:37:16;;;;;;;60.40;29.27;;;-0.50;1.00;;;;;;5020664;28;20228;-72
2023/12/06 11:40:07;;;;;;;58.90;27.90;;;-0.30;1.00;;;;;;5023825;28;20229;-73
2023/12/06 11:42:38;;;;;;;61.73;28.43;;;-0.30;1.00;;;;;;5017832;28;20284;-71
2023/12/06 11:45:22;;;;;;;56.27;27.50;;;-0.20;1.00;;;;;;5006865;28;20224;-71
2023/12/06 11:47:52;;;;;;;59.07;29.23;;;-0.40;1.00;;;;;;5019271;28;20307;-71
2023/12/06 11:50:23;;;;;;;56.80;27.00;;;-0.10;1.00;;;;;;5019382;28;20223;-72
2023/12/06 11:52:53;;;;;;;60.70;29.70;;;-0.30;1.00;;;;;;5036669;28;20232;-72
2023/12/06 11:55:25;;;;;;;64.63;30.10;;;-0.30;1.00;;;;;;5021866;28;20224;-72
2023/12/06 11:58:07;;;;;;;62.47;30.20;;;0.00;1.00;;;;;;5016495;28;20279;-71
2023/12/06 12:00:39;;;;;;;58.00;28.13;;;-0.20;1.00;;;;;;5021120;28;20224;-71
2023/12/06 12:03:09;;;;;;;59.07;29.90;;;-0.50;1.00;;;;;;5021328;28;20233;-70
2023/12/06 12:05:39;;;;;;;60.87;29.10;;;-0.50;1.00;;;;;;5018498;28;20327;-71
2023/12/06 12:08:08;;;;;;;59.23;29.70;;;-0.20;1.00;;;;;;5018080;28;20310;-70
2023/12/06 12:10:40;;;;;;;58.10;28.70;;;-0.20;1.00;;;;;;5021426;28;20268;-72
2023/12/06 12:13:17;;;;;;;56.50;28.37;;;-0.10;1.00;;;;;;5035956;28;20306;-72
2023/12/06 12:15:53;;;;;;;55.77;28.13;;;-0.40;1.00;;;;;;5030913;28;21201;-71
2023/12/06 12:18:22;;;;;;;55.43;28.47;;;-0.30;1.00;;;;;;5015931;28;20218;-70
2023/12/06 12:20:50;;;;;;;55.53;28.20;;;-0.20;1.00;;;;;;5014908;28;20230;-72
2023/12/06 12:23:18;;;;;;;59.60;28.17;;;0.00;1.00;;;;;;5019888;28;20226;-70
2023/12/06 12:25:51;;;;;;;58.03;28.70;;;0.20;1.00;;;;;;5017581;28;20225;-72
2023/12/06 12:28:21;;;;;;;54.83;28.67;;;-0.20;1.00;;;;;;5022372;28;20310;-70
2023/12/06 12:30:54;;;;;;;57.57;27.47;;;0.00;1.00;;;;;;5027628;28;20231;-71
2023/12/06 12:33:23;;;;;;;64.17;30.30;;;-0.40;1.00;;;;;;5013686;28;20653;-71
2023/12/06 12:35:52;;;;;;;56.43;28.40;;;-0.50;1.00;;;;;;5015406;28;20233;-71
2023/12/06 12:38:21;;;;;;;62.43;30.17;;;-0.50;1.00;;;;;;5016242;28;20221;-71
2023/12/06 12:40:52;;;;;;;58.67;28.03;;;-0.40;1.00;;;;;;5021085;28;20230;-72
2023/12/06 12:43:21;;;;;;;60.37;29.57;;;-0.60;1.00;;;;;;5039884;28;20233;-71
2023/12/06 12:45:51;;;;;;;57.43;29.40;;;-0.40;1.00;;;;;;5022789;28;20232;-68
2023/12/06 12:48:19;;;;;;;60.33;29.70;;;-0.50;1.00;;;;;;5019089;28;20226;-71
2023/12/06 12:50:48;;;;;;;57.50;28.23;;;-0.70;1.00;;;;;;5019363;28;20286;-71